createdAt,value
2022-10-28T00:01:50.914Z,100417.06
2022-10-28T00:04:18.711Z,100413.72
2022-10-28T00:06:46.289Z,100409.41
2022-10-28T00:09:13.922Z,100404.28
2022-10-28T00:11:41.490Z,100413.25
2022-10-28T00:14:11.083Z,100409.91
2022-10-28T00:16:39.143Z,100411.28
2022-10-28T00:19:08.361Z,100401.34
2022-10-28T00:21:38.888Z,100405.31
2022-10-28T00:24:07.781Z,100396.47
2022-10-28T00:26:37.285Z,100398.06
2022-10-28T00:29:06.800Z,100393.25
2022-10-28T00:31:37.226Z,100393.94
2022-10-28T00:34:06.934Z,100390.91
2022-10-28T00:36:37.134Z,100392.59
2022-10-28T00:39:11.607Z,100388.63
2022-10-28T00:41:40.823Z,100394.06
2022-10-28T00:44:41.826Z,100381.31
2022-10-28T00:47:16.140Z,100393.69
2022-10-28T00:49:45.149Z,100392.19
2022-10-28T00:52:18.704Z,100397.84
2022-10-28T00:54:46.862Z,100393.81
2022-10-28T00:57:18.461Z,100396.59
2022-10-28T00:59:50.737Z,100392.75
2022-10-28T01:02:20.422Z,100393.09
2022-10-28T01:04:48.831Z,100397.25
2022-10-28T01:07:17.959Z,100391.75
2022-10-28T01:09:46.061Z,100397.56
2022-10-28T01:12:23.804Z,100385.53
2022-10-28T01:15:05.549Z,100390.00
2022-10-28T01:17:47.385Z,100390.53
2022-10-28T01:21:02.061Z,100380.75
2022-10-28T01:23:36.140Z,100380.75
2022-10-28T01:26:39.211Z,100378.44
2022-10-28T01:29:40.810Z,100377.63
2022-10-28T01:32:17.694Z,100370.63
2022-10-28T01:34:54.266Z,100371.47
2022-10-28T01:37:32.319Z,100373.28
2022-10-28T01:40:06.821Z,100371.34
2022-10-28T01:42:42.906Z,100374.44
2022-10-28T01:45:15.730Z,100372.75
2022-10-28T01:47:51.429Z,100371.09
2022-10-28T01:50:24.472Z,100368.28
2022-10-28T01:52:56.907Z,100374.66
2022-10-28T01:55:28.094Z,100373.59
2022-10-28T01:58:00.082Z,100359.94
2022-10-28T02:00:27.930Z,100366.88
2022-10-28T02:02:57.308Z,100369.53
2022-10-28T02:05:43.682Z,100366.44
2022-10-28T02:08:25.155Z,100365.72
2022-10-28T02:11:10.733Z,100365.06
2022-10-28T02:13:47.913Z,100369.19
2022-10-28T02:16:24.995Z,100364.53
2022-10-28T02:19:04.533Z,100358.50
2022-10-28T02:21:43.195Z,100363.34
2022-10-28T02:24:19.549Z,100357.78
2022-10-28T02:26:55.715Z,100362.34
2022-10-28T02:29:32.285Z,100351.34
2022-10-28T02:32:05.498Z,100348.53
2022-10-28T02:34:38.690Z,100347.72
2022-10-28T02:37:12.054Z,100345.72
2022-10-28T02:39:43.484Z,100342.56
2022-10-28T02:42:16.492Z,100333.22
2022-10-28T02:44:48.847Z,100330.25
2022-10-28T02:47:20.933Z,100322.56
2022-10-28T02:49:54.633Z,100319.41
2022-10-28T02:52:26.420Z,100312.44
2022-10-28T02:54:56.035Z,100303.59
2022-10-28T02:57:26.087Z,100310.22
2022-10-28T03:01:07.699Z,100309.31
2022-10-28T03:03:35.414Z,100308.41
2022-10-28T03:06:04.480Z,100297.53
2022-10-28T03:08:32.015Z,100305.72
2022-10-28T03:10:59.578Z,100298.06
2022-10-28T03:13:27.102Z,100292.78
2022-10-28T03:15:54.637Z,100291.28
2022-10-28T03:18:22.255Z,100292.56
2022-10-28T03:20:49.876Z,100286.47
2022-10-28T03:23:19.765Z,100286.84
2022-10-28T03:25:47.362Z,100285.19
2022-10-28T03:28:14.893Z,100298.03
2022-10-28T03:30:43.482Z,100292.22
2022-10-28T03:33:11.083Z,100294.72
2022-10-28T03:35:38.641Z,100282.50
2022-10-28T03:38:06.266Z,100282.34
2022-10-28T03:40:35.329Z,100282.47
2022-10-28T03:43:04.395Z,100296.50
2022-10-28T03:45:32.371Z,100291.00
2022-10-28T03:48:00.161Z,100291.31
2022-10-28T03:50:27.802Z,100285.81
2022-10-28T03:52:55.495Z,100279.09
2022-10-28T03:55:23.752Z,100282.97
2022-10-28T03:57:53.165Z,100271.84
2022-10-28T04:00:21.391Z,100276.28
2022-10-28T04:02:52.003Z,100266.59
2022-10-28T04:05:20.501Z,100267.31
2022-10-28T04:07:48.477Z,100267.03
2022-10-28T04:10:16.170Z,100274.75
2022-10-28T04:12:43.922Z,100268.50
2022-10-28T04:15:12.997Z,100281.25
2022-10-28T04:17:40.681Z,100284.13
2022-10-28T04:20:09.865Z,100284.25
2022-10-28T04:22:37.554Z,100290.72
2022-10-28T04:25:05.972Z,100310.38
2022-10-28T04:27:33.860Z,100295.97
2022-10-28T04:30:01.574Z,100298.41
2022-10-28T04:32:30.770Z,100290.72
2022-10-28T04:34:58.443Z,100303.84
2022-10-28T04:37:26.068Z,100305.59
2022-10-28T04:39:53.784Z,100302.13
2022-10-28T04:42:21.431Z,100303.06
2022-10-28T04:44:49.060Z,100309.22
2022-10-28T04:47:17.481Z,100307.91
2022-10-28T04:49:46.850Z,100308.47
2022-10-28T04:52:15.792Z,100303.75
2022-10-28T04:54:43.831Z,100306.13
2022-10-28T04:57:11.536Z,100305.72
2022-10-28T04:59:39.210Z,100304.91
2022-10-28T05:02:07.219Z,100301.09
2022-10-28T05:04:35.006Z,100298.81
2022-10-28T05:07:04.008Z,100296.66
2022-10-28T05:09:31.738Z,100292.78
2022-10-28T05:11:59.478Z,100291.63
2022-10-28T05:14:27.412Z,100297.16
2022-10-28T05:16:55.258Z,100297.19
2022-10-28T05:19:23.121Z,100287.22
2022-10-28T05:21:50.834Z,100296.72
2022-10-28T05:24:19.979Z,100289.59
2022-10-28T05:26:47.643Z,100285.19
2022-10-28T05:29:15.639Z,100288.34
2022-10-28T05:31:43.354Z,100283.72
2022-10-28T05:34:11.040Z,100287.69
2022-10-28T05:36:39.332Z,100280.09
2022-10-28T05:39:07.303Z,100280.56
2022-10-28T05:41:38.764Z,100284.34
2022-10-28T05:44:07.163Z,100282.94
2022-10-28T05:46:34.874Z,100285.50
2022-10-28T05:49:02.648Z,100291.13
2022-10-28T05:51:31.162Z,100291.53
2022-10-28T05:53:58.868Z,100291.94
2022-10-28T05:56:27.591Z,100295.19
2022-10-28T05:58:56.667Z,100291.81
2022-10-28T06:01:24.424Z,100306.03
2022-10-28T06:03:52.184Z,100302.88
2022-10-28T06:06:20.656Z,100303.00
2022-10-28T06:08:48.840Z,100304.00
2022-10-28T06:11:15.008Z,100301.38
2022-10-28T06:13:42.909Z,100309.38
2022-10-28T06:16:12.088Z,100302.31
2022-10-28T06:18:39.922Z,100306.63
2022-10-28T06:21:07.900Z,100309.47
2022-10-28T06:23:35.822Z,100312.84
2022-10-28T06:26:04.818Z,100313.16
2022-10-28T06:28:32.642Z,100312.41
2022-10-28T06:31:03.924Z,100309.22
2022-10-28T06:33:33.323Z,100309.56
2022-10-28T06:36:01.570Z,100310.16
2022-10-28T06:38:29.344Z,100313.31
2022-10-28T06:41:00.505Z,100320.63
2022-10-28T06:43:28.315Z,100329.22
2022-10-28T06:45:56.189Z,100317.44
2022-10-28T06:48:25.548Z,100323.59
2022-10-28T06:50:56.388Z,100327.97
2022-10-28T06:53:24.174Z,100323.81
2022-10-28T06:55:55.393Z,100333.78
2022-10-28T06:58:23.905Z,100334.88
2022-10-28T07:00:52.413Z,100326.00
2022-10-28T07:03:22.778Z,100324.19
2022-10-28T07:05:51.837Z,100339.88
2022-10-28T07:08:21.048Z,100334.78
2022-10-28T07:10:55.657Z,100333.41
2022-10-28T07:13:23.646Z,100340.09
2022-10-28T07:15:54.903Z,100344.81
2022-10-28T07:18:23.456Z,100345.47
2022-10-28T07:20:51.626Z,100343.47
2022-10-28T07:23:21.092Z,100341.63
2022-10-28T07:28:22.329Z,100339.97
2022-10-28T07:30:50.197Z,100334.00
2022-10-28T07:33:18.783Z,100345.88
2022-10-28T07:35:46.829Z,100348.34
2022-10-28T07:38:14.726Z,100341.28
2022-10-28T07:40:44.441Z,100336.97
2022-10-28T07:43:12.435Z,100337.81
2022-10-28T07:45:40.255Z,100350.38
2022-10-28T07:48:08.566Z,100350.19
2022-10-28T07:50:36.324Z,100348.72
2022-10-28T07:53:05.167Z,100352.88
2022-10-28T07:55:33.104Z,100362.25
2022-10-28T07:58:02.233Z,100357.91
2022-10-28T08:00:30.934Z,100355.91
2022-10-28T08:02:58.706Z,100349.94
2022-10-28T08:05:26.438Z,100350.69
2022-10-28T08:07:54.536Z,100346.06
2022-10-28T08:10:22.767Z,100349.59
2022-10-28T08:12:50.539Z,100350.78
2022-10-28T08:15:26.474Z,100351.88
2022-10-28T08:17:55.132Z,100358.78
2022-10-28T08:20:24.046Z,100355.56
2022-10-28T08:22:54.873Z,100353.81
2022-10-28T08:25:22.775Z,100361.28
2022-10-28T08:27:51.523Z,100361.63
2022-10-28T08:30:25.068Z,100358.22
2022-10-28T08:32:55.995Z,100358.94
2022-10-28T08:35:24.132Z,100355.13
2022-10-28T08:37:53.018Z,100346.19
2022-10-28T08:40:29.874Z,100343.94
2022-10-28T08:43:08.986Z,100351.50
2022-10-28T08:45:49.571Z,100354.75
2022-10-28T08:48:27.204Z,100357.56
2022-10-28T08:50:59.604Z,100349.59
2022-10-28T08:53:31.090Z,100342.72
2022-10-28T08:56:14.220Z,100346.44
2022-10-28T08:58:45.057Z,100339.34
2022-10-28T09:01:22.188Z,100347.25
2022-10-28T09:03:53.291Z,100352.00
2022-10-28T09:06:21.186Z,100348.22
2022-10-28T09:08:51.745Z,100354.75
2022-10-28T09:11:43.199Z,100351.97
2022-10-28T09:14:30.899Z,100345.28
2022-10-28T09:17:11.317Z,100348.91
2022-10-28T09:19:49.632Z,100346.75
2022-10-28T09:22:34.429Z,100347.25
2022-10-28T09:25:06.101Z,100343.19
2022-10-28T09:27:51.215Z,100343.59
2022-10-28T09:30:29.379Z,100345.44
2022-10-28T09:33:10.279Z,100351.06
2022-10-28T09:35:43.095Z,100344.75
2022-10-28T09:38:21.786Z,100345.16
2022-10-28T09:40:57.495Z,100350.19
2022-10-28T09:43:29.556Z,100343.19
2022-10-28T09:46:03.208Z,100338.13
2022-10-28T09:48:35.036Z,100339.72
2022-10-28T09:51:04.033Z,100345.94
2022-10-28T09:53:45.412Z,100341.22
2022-10-28T09:56:13.255Z,100341.59
2022-10-28T09:58:45.823Z,100342.44
2022-10-28T10:01:14.645Z,100347.22
2022-10-28T10:03:45.210Z,100350.81
2022-10-28T10:06:15.276Z,100340.72
2022-10-28T10:08:44.562Z,100338.94
2022-10-28T10:11:19.548Z,100345.69
2022-10-28T10:13:47.960Z,100337.88
2022-10-28T10:16:20.833Z,100342.41
2022-10-28T10:18:52.903Z,100334.84
2022-10-28T10:21:41.974Z,100332.09
2022-10-28T10:24:29.468Z,100330.16
2022-10-28T10:26:58.421Z,100337.56
2022-10-28T10:29:26.899Z,100328.25
2022-10-28T10:32:14.820Z,100325.44
2022-10-28T10:34:47.044Z,100324.09
2022-10-28T10:37:21.158Z,100331.75
2022-10-28T10:40:03.049Z,100327.81
2022-10-28T10:42:30.754Z,100328.28
2022-10-28T10:45:02.655Z,100327.44
2022-10-28T10:47:30.764Z,100317.28
2022-10-28T10:50:29.382Z,100314.13
2022-10-28T10:52:59.257Z,100314.50
2022-10-28T10:55:34.533Z,100324.66
2022-10-28T10:58:03.457Z,100321.56
2022-10-28T11:00:36.322Z,100309.88
2022-10-28T11:03:05.910Z,100307.44
2022-10-28T11:05:38.109Z,100307.97
2022-10-28T11:08:07.727Z,100308.81
2022-10-28T11:10:36.254Z,100306.28
2022-10-28T11:13:06.650Z,100306.53
2022-10-28T11:15:34.450Z,100301.81
2022-10-28T11:18:04.843Z,100290.44
2022-10-28T11:20:49.501Z,100281.91
2022-10-28T11:23:45.574Z,100285.16
2022-10-28T11:26:17.283Z,100284.31
2022-10-28T11:29:08.577Z,100285.94
2022-10-28T11:31:55.532Z,100278.13
2022-10-28T11:34:41.645Z,100274.13
2022-10-28T11:37:19.917Z,100271.31
2022-10-28T11:39:58.344Z,100273.22
2022-10-28T11:42:34.838Z,100263.59
2022-10-28T11:45:10.151Z,100261.56
2022-10-28T11:48:07.945Z,100261.66
2022-10-28T11:50:59.244Z,100256.47
2022-10-28T11:53:46.733Z,100253.34
2022-10-28T11:56:29.175Z,100244.53
2022-10-28T11:59:15.839Z,100246.25
2022-10-28T12:01:56.181Z,100227.28
2022-10-28T12:04:41.625Z,100232.06
2022-10-28T12:07:37.289Z,100233.72
2022-10-28T12:10:20.160Z,100227.38
2022-10-28T12:12:55.421Z,100221.13
2022-10-28T12:15:30.456Z,100225.81
2022-10-28T12:18:07.360Z,100220.09
2022-10-28T12:20:41.118Z,100218.25
2022-10-28T12:23:13.757Z,100212.44
2022-10-28T12:25:47.394Z,100213.78
2022-10-28T12:28:21.007Z,100211.91
2022-10-28T12:30:52.052Z,100204.66
2022-10-28T12:33:24.760Z,100201.31
2022-10-28T12:35:58.017Z,100203.19
2022-10-28T12:38:33.745Z,100187.41
2022-10-28T12:41:08.646Z,100195.31
2022-10-28T12:43:41.553Z,100179.22
2022-10-28T12:46:19.594Z,100182.53
2022-10-28T12:48:52.430Z,100186.84
2022-10-28T12:51:29.257Z,100193.41
2022-10-28T12:54:02.593Z,100192.25
2022-10-28T12:56:37.661Z,100185.22
2022-10-28T12:59:12.166Z,100187.16
2022-10-28T13:01:40.717Z,100167.56
2022-10-28T13:04:12.807Z,100171.53
2022-10-28T13:07:29.148Z,100170.00
2022-10-28T13:10:07.844Z,100165.91
2022-10-28T13:12:57.546Z,100172.19
2022-10-28T13:15:39.866Z,100164.53
2022-10-28T13:18:30.155Z,100164.84
2022-10-28T13:21:08.941Z,100159.09
2022-10-28T13:23:41.694Z,100158.38
2022-10-28T13:26:22.322Z,100164.16
2022-10-28T13:28:55.027Z,100158.81
2022-10-28T13:31:23.201Z,100151.59
2022-10-28T13:33:55.867Z,100149.84
2022-10-28T13:36:28.335Z,100152.03
2022-10-28T13:38:59.906Z,100144.16
2022-10-28T13:41:34.031Z,100149.59
2022-10-28T13:44:27.973Z,100153.66
2022-10-28T13:47:23.864Z,100155.56
2022-10-28T13:50:33.066Z,100158.41
2022-10-28T13:53:43.474Z,100160.78
2022-10-28T13:56:45.735Z,100166.56
2022-10-28T13:59:50.109Z,100167.75
2022-10-28T14:02:39.243Z,100165.69
2022-10-28T14:05:09.174Z,100157.31
2022-10-28T14:07:39.534Z,100164.00
2022-10-28T14:10:21.020Z,100165.94
2022-10-28T14:12:52.287Z,100166.66
2022-10-28T14:15:25.652Z,100169.16
2022-10-28T14:18:05.006Z,100174.09
2022-10-28T14:20:58.961Z,100165.66
2022-10-28T14:24:06.719Z,100168.84
2022-10-28T14:27:30.407Z,100158.94
2022-10-28T14:30:29.816Z,100156.28
2022-10-28T14:33:00.596Z,100157.34
2022-10-28T14:35:34.186Z,100160.03
2022-10-28T14:38:31.320Z,100162.81
2022-10-28T14:41:12.617Z,100167.69
2022-10-28T14:43:51.944Z,100172.75
2022-10-28T14:46:38.237Z,100184.81
2022-10-28T14:49:17.996Z,100184.63
2022-10-28T14:51:49.102Z,100191.66
2022-10-28T14:54:20.121Z,100193.59
2022-10-28T14:56:48.527Z,100191.41
2022-10-28T14:59:25.657Z,100187.94
2022-10-28T15:02:42.929Z,100190.28
2022-10-28T15:05:20.302Z,100185.41
2022-10-28T15:07:48.918Z,100190.31
2022-10-28T15:10:19.357Z,100187.44
2022-10-28T15:12:49.616Z,100181.06
2022-10-28T15:15:19.248Z,100188.09
2022-10-28T15:17:47.284Z,100187.13
2022-10-28T15:20:24.469Z,100186.69
2022-10-28T15:22:53.580Z,100181.56
2022-10-28T15:25:22.823Z,100185.31
2022-10-28T15:27:53.292Z,100187.69
2022-10-28T15:30:23.648Z,100185.25
2022-10-28T15:32:52.391Z,100192.69
2022-10-28T15:35:39.628Z,100196.59
2022-10-28T15:38:34.049Z,100198.59
2022-10-28T15:41:01.872Z,100197.84
2022-10-28T15:43:32.186Z,100203.22
2022-10-28T15:46:11.179Z,100205.81
2022-10-28T15:48:39.342Z,100211.19
2022-10-28T15:51:17.220Z,100206.84
2022-10-28T15:53:45.277Z,100200.97
2022-10-28T15:56:23.967Z,100205.53
2022-10-28T15:59:08.955Z,100204.56
2022-10-28T16:01:39.450Z,100207.13
2022-10-28T16:04:28.126Z,100206.66
2022-10-28T16:06:58.762Z,100208.19
2022-10-28T16:09:32.282Z,100221.88
2022-10-28T16:12:03.201Z,100218.44
2022-10-28T16:14:39.105Z,100224.56
2022-10-28T16:17:15.144Z,100228.41
2022-10-28T16:19:47.600Z,100234.31
2022-10-28T16:22:18.351Z,100232.56
2022-10-28T16:24:47.353Z,100227.78
2022-10-28T16:27:26.879Z,100233.25
2022-10-28T16:29:54.986Z,100229.91
2022-10-28T16:32:28.628Z,100234.38
2022-10-28T16:34:58.012Z,100230.50
2022-10-28T16:37:29.353Z,100238.78
2022-10-28T16:39:58.006Z,100236.16
2022-10-28T16:42:26.822Z,100235.38
2022-10-28T16:44:54.466Z,100231.50
2022-10-28T16:47:26.646Z,100234.28
2022-10-28T16:49:57.644Z,100232.25
2022-10-28T16:52:29.145Z,100233.06
2022-10-28T16:54:57.440Z,100234.50
2022-10-28T16:57:25.680Z,100234.91
2022-10-28T16:59:53.789Z,100236.91
2022-10-28T17:02:25.594Z,100236.81
2022-10-28T17:04:53.409Z,100246.50
2022-10-28T17:07:21.042Z,100237.16
2022-10-28T17:09:51.913Z,100242.31
2022-10-28T17:12:21.718Z,100242.44
2022-10-28T17:14:49.693Z,100244.25
2022-10-28T17:17:17.573Z,100252.00
2022-10-28T17:19:46.484Z,100255.56
2022-10-28T17:22:14.551Z,100253.44
2022-10-28T17:24:42.212Z,100263.25
2022-10-28T17:27:13.053Z,100259.28
2022-10-28T17:29:40.883Z,100258.25
2022-10-28T17:32:09.315Z,100265.31
2022-10-28T17:34:37.437Z,100264.69
2022-10-28T17:37:05.356Z,100258.53
2022-10-28T17:39:33.043Z,100262.09
2022-10-28T17:42:01.213Z,100261.75
2022-10-28T17:44:30.238Z,100268.59
2022-10-28T17:46:58.019Z,100285.13
2022-10-28T17:49:25.758Z,100276.28
2022-10-28T17:51:53.937Z,100284.47
2022-10-28T17:54:21.608Z,100291.50
2022-10-28T17:56:49.199Z,100281.16
2022-10-28T17:59:18.744Z,100277.84
2022-10-28T18:01:47.858Z,100279.28
2022-10-28T18:04:15.793Z,100284.31
2022-10-28T18:06:43.482Z,100289.44
2022-10-28T18:09:12.079Z,100293.41
2022-10-28T18:11:39.959Z,100294.41
2022-10-28T18:14:07.740Z,100293.78
2022-10-28T18:16:37.899Z,100295.19
2022-10-28T18:19:08.558Z,100294.81
2022-10-28T18:21:37.139Z,100293.34
2022-10-28T18:24:05.612Z,100295.41
2022-10-28T18:26:34.714Z,100291.53
2022-10-28T18:29:04.727Z,100292.75
2022-10-28T18:31:34.143Z,100290.75
2022-10-28T18:34:04.206Z,100289.69
2022-10-28T18:36:48.742Z,100283.28
2022-10-28T18:39:20.237Z,100274.81
2022-10-28T18:41:48.528Z,100280.84
2022-10-28T18:44:20.103Z,100280.84
2022-10-28T18:46:48.320Z,100279.19
2022-10-28T18:50:01.580Z,100273.00
2022-10-28T18:53:13.301Z,100270.91
2022-10-28T18:56:19.480Z,100272.06
2022-10-28T19:05:57.120Z,100288.69
2022-10-28T19:12:04.755Z,100303.34
2022-10-28T19:15:01.499Z,100293.03
2022-10-28T19:18:30.384Z,100284.84
2022-10-28T19:22:00.266Z,100293.28
2022-10-28T19:24:40.482Z,100298.63
2022-10-28T19:27:36.018Z,100298.00
2022-10-28T19:30:28.317Z,100295.78
2022-10-28T19:33:50.125Z,100300.94
2022-10-28T19:36:26.254Z,100311.03
2022-10-28T19:39:36.466Z,100308.78
2022-10-28T19:42:38.917Z,100310.44
2022-10-28T19:45:15.393Z,100306.09
2022-10-28T19:48:35.721Z,100306.94
2022-10-28T19:52:10.228Z,100310.47
2022-10-28T19:54:57.637Z,100315.00
2022-10-28T19:58:10.220Z,100316.03
2022-10-28T20:01:06.322Z,100321.78
2022-10-28T20:07:38.733Z,100322.59
2022-10-28T20:10:43.238Z,100320.31
2022-10-28T20:17:09.309Z,100328.28
2022-10-28T20:20:17.447Z,100332.97
2022-10-28T20:26:12.613Z,100338.97
2022-10-28T20:28:42.062Z,100349.69
2022-10-28T20:31:11.471Z,100350.19
2022-10-28T20:33:41.126Z,100349.03
2022-10-28T20:36:22.884Z,100344.59
2022-10-28T20:38:54.029Z,100354.41
2022-10-28T20:41:21.698Z,100354.53
2022-10-28T20:43:52.549Z,100358.84
2022-10-28T20:46:21.443Z,100366.56
2022-10-28T20:48:49.745Z,100365.53
2022-10-28T20:51:17.921Z,100357.94
2022-10-28T20:53:45.531Z,100361.91
2022-10-28T20:56:17.287Z,100367.06
2022-10-28T20:58:45.149Z,100369.28
2022-10-28T21:01:16.829Z,100374.59
2022-10-28T21:03:45.783Z,100382.84
2022-10-28T21:06:15.085Z,100377.06
2022-10-28T21:08:43.177Z,100373.69
2022-10-28T21:11:13.769Z,100377.28
2022-10-28T21:13:42.038Z,100390.91
2022-10-28T21:16:11.617Z,100392.50
2022-10-28T21:18:41.165Z,100397.38
2022-10-28T21:21:08.903Z,100389.22
2022-10-28T21:23:36.571Z,100389.41
2022-10-28T21:26:06.838Z,100400.69
2022-10-28T21:28:35.734Z,100398.97
2022-10-28T21:31:05.404Z,100390.94
2022-10-28T21:33:34.317Z,100394.94
2022-10-28T21:36:05.695Z,100411.16
2022-10-28T21:38:34.249Z,100409.78
2022-10-28T21:41:03.138Z,100411.69
2022-10-28T21:43:32.776Z,100410.91
2022-10-28T21:46:00.820Z,100418.94
2022-10-28T21:48:29.342Z,100416.00
2022-10-28T21:50:59.438Z,100414.16
2022-10-28T21:53:29.005Z,100410.72
2022-10-28T21:56:03.569Z,100411.94
2022-10-28T21:58:31.260Z,100411.56
2022-10-28T22:01:03.717Z,100415.25
2022-10-28T22:03:31.422Z,100416.19
2022-10-28T22:05:59.089Z,100416.19
2022-10-28T22:08:28.153Z,100413.75
2022-10-28T22:11:00.699Z,100407.75
2022-10-28T22:13:28.913Z,100409.84
2022-10-28T22:16:01.335Z,100407.19
2022-10-28T22:18:29.801Z,100402.13
2022-10-28T22:20:58.078Z,100412.81
2022-10-28T22:23:25.905Z,100399.53
2022-10-28T22:25:54.915Z,100404.50
2022-10-28T22:28:22.614Z,100394.84
2022-10-28T22:30:50.384Z,100403.34
2022-10-28T22:33:18.020Z,100390.94
2022-10-28T22:35:45.637Z,100397.44
2022-10-28T22:38:13.288Z,100398.47
2022-10-28T22:40:41.057Z,100397.50
2022-10-28T22:43:10.022Z,100401.84
2022-10-28T22:45:37.624Z,100398.88
2022-10-28T22:48:05.457Z,100399.47
2022-10-28T22:50:33.073Z,100398.13
2022-10-28T22:53:00.727Z,100388.28
2022-10-28T22:55:28.390Z,100382.19
2022-10-28T22:57:56.538Z,100380.75
2022-10-28T23:00:25.885Z,100379.16
2022-10-28T23:02:54.109Z,100375.25
2022-10-28T23:05:22.007Z,100370.41
2022-10-28T23:07:49.874Z,100382.91
2022-10-28T23:10:17.587Z,100385.69
2022-10-28T23:12:45.234Z,100380.56
2022-10-28T23:15:12.911Z,100369.72
2022-10-28T23:17:41.900Z,100367.72
2022-10-28T23:20:10.620Z,100375.69
2022-10-28T23:22:38.473Z,100378.44
2022-10-28T23:25:07.145Z,100382.66
2022-10-28T23:27:35.037Z,100388.09
2022-10-28T23:30:02.772Z,100379.44
2022-10-28T23:32:30.902Z,100382.50
2022-10-28T23:35:00.000Z,100379.25
2022-10-28T23:37:27.637Z,100379.41
2022-10-28T23:39:55.422Z,100378.06
2022-10-28T23:42:23.200Z,100377.50
2022-10-28T23:44:50.951Z,100382.84
2022-10-28T23:47:18.618Z,100385.78
2022-10-28T23:49:46.332Z,100389.91
2022-10-28T23:52:15.386Z,100388.19
2022-10-28T23:54:43.209Z,100389.97
2022-10-28T23:57:10.935Z,100395.50
2022-10-28T23:59:38.624Z,100387.69
